This is the latest recevied weather packets stored in our database for station/object N2XP-2. If no packets are shown the sender has not sent any weather packets the latest 10 day(s).
| Time | Temp. | Humidity | Pressure | Rain* | Wind** | Luminosity | Snow |
|---|---|---|---|---|---|---|---|
| 1778169223 | 18.33° C | 60% | 1010.4 hPa | 0 mm | 0.89 m/s, 6° | - | - |
| 1778168924 | 17.78° C | 61% | 1010.4 hPa | 0 mm | 0.89 m/s, 308° | - | - |
| 1778168827 | 16.67° C | 67% | 1010.9 hPa | 0 mm | 0.45 m/s, 309° | - | - |
| 1778168323 | 17.22° C | 64% | 1010.5 hPa | 0 mm | 0.45 m/s, 318° | - | - |
| 1778167720 | 16.67° C | 66% | 1010.8 hPa | 0 mm | 0.89 m/s, 301° | - | - |
| 1778167422 | 16.67° C | 67% | 1010.9 hPa | 0 mm | 0.45 m/s, 309° | - | - |
| 1778166819 | 16.11° C | 69% | 1011 hPa | 0 mm | 0 m/s | - | - |
| 1778166521 | 16.11° C | 70% | 1011.1 hPa | 0 mm | 0.45 m/s, 281° | - | - |
| 1778166319 | 15.56° C | 70% | 1011.1 hPa | 0 mm | 0 m/s | - | - |
| 1778166222 | 15.56° C | 70% | 1011.1 hPa | 0 mm | 0 m/s | - | - |
| 1778165919 | 15.56° C | 71% | 1011.2 hPa | 0 mm | 0 m/s | - | - |
| 1778165651 | 15.56° C | 74% | 1011 hPa | 0 mm | 0.45 m/s, 356° | - | - |
| 1778165620 | 15.56° C | 74% | 1011 hPa | 0 mm | 0.45 m/s, 356° | - | - |
| 1778165321 | 15° C | 75% | 1011.1 hPa | 0 mm | 0 m/s | - | - |
| 1778165079 | 15° C | 77% | 1011.1 hPa | 0 mm | 0.89 m/s, 294° | - | - |
| 1778165018 | 15° C | 77% | 1011.1 hPa | 0 mm | 0.89 m/s, 294° | - | - |
| 1778164972 | 14.44° C | 81% | 1011 hPa | 0 mm | 0.89 m/s, 325° | - | - |
| 1778164719 | 15° C | 78% | 1011.1 hPa | 0 mm | 0 m/s | - | - |
| 1778164420 | 14.44° C | 78% | 1011.2 hPa | 0 mm | 0 m/s | - | - |
| 1778164117 | 14.44° C | 79% | 1011.1 hPa | 0 mm | 0 m/s | - | - |
| 1778163818 | 14.44° C | 79% | 1011.1 hPa | 0 mm | 0.89 m/s, 321° | - | - |
| 1778163519 | 14.44° C | 80% | 1011 hPa | 0 mm | 0 m/s | - | - |
| 1778163216 | 14.44° C | 81% | 1011 hPa | 0 mm | 0.89 m/s, 325° | - | - |
| 1778163056 | 13.89° C | 87% | 1011.1 hPa | 0 mm | 0.89 m/s, 270° | - | - |
| 1778162917 | 14.44° C | 82% | 1011.1 hPa | 0 mm | 0.89 m/s, 322° | - | - |
* Rain latest hour (hover to see other rain measurements)
** Current wind speed in m/s (hover to see current wind gust speed)